Decoded Metar for KELY (ELY in NV, USA) (IATA:ELY) | Meteo·Mobile Aviation Weather
aviador You're here:

KELY Decoded Metar

ELY in NV, USA
Report Time2019-01-16 23:53:00
UTC Time2019-01-17 00:07:21
Flight Rules vfr VFR
Wind140° at 14 Gusting to 22 kt
W.Decomp.*RWY 12: 13.9 kt HW 1.5 kt RCW
RWY 18: 8.2 kt HW 11.3 kt LCW
W.Rank140° ranks 14
Current wind is above 140° avg. (8.7)
Visibility9999 m
Phenomena:N/A
Clouds:Few 039 Hf
Scattered 110 Hf
Expected CloudBase > 1,600 ft AGL from Temp-Dew spread
CeilingNone
Temp03°C (ISA 0)
Dew Point-1°C (75% RH)
AAT-4.2°C
QNH1020 hPa
Density Alt6,158 ft
Elevation6,253 ft
Report Wrong Elevation
Raw Report
KELY 162353Z AUTO 14014G22KT 10SM FEW039 SCT110 03/M01 A3011 RMK
AO2 SLP185 60000 T00281011 10039 20011 50011=

Extra information for KELY:More info

Metar Taf Metar & Taf Last 4 Metars F.Rules Stats Wind Profile Meteogram Temp Stats Airport Information Weather charts Add Link Nearby VenuesMetar ALERT Operation Metar Decoded Social comments

AIRNAV info for KELY